sensor_id;sensor_type;location;lat;lon;timestamp;P1;durP1;ratioP1;P2;durP2;ratioP2
9370;SDS011;4725;48.384;8.984;2023-07-29T00:01:30;6.60;;;1.40;;
9370;SDS011;4725;48.384;8.984;2023-07-29T00:03:57;1.52;;;1.40;;
9370;SDS011;4725;48.384;8.984;2023-07-29T00:06:23;2.55;;;1.65;;
9370;SDS011;4725;48.384;8.984;2023-07-29T00:08:52;4.88;;;2.00;;
9370;SDS011;4725;48.384;8.984;2023-07-29T00:11:18;2.08;;;1.50;;
9370;SDS011;4725;48.384;8.984;2023-07-29T00:13:45;5.43;;;1.80;;
9370;SDS011;4725;48.384;8.984;2023-07-29T00:16:15;5.53;;;1.38;;
9370;SDS011;4725;48.384;8.984;2023-07-29T00:18:42;4.32;;;1.50;;
9370;SDS011;4725;48.384;8.984;2023-07-29T00:21:09;5.30;;;1.90;;
9370;SDS011;4725;48.384;8.984;2023-07-29T00:23:36;5.80;;;1.88;;
9370;SDS011;4725;48.384;8.984;2023-07-29T00:26:04;4.90;;;1.80;;
9370;SDS011;4725;48.384;8.984;2023-07-29T00:28:31;3.65;;;2.42;;
9370;SDS011;4725;48.384;8.984;2023-07-29T00:30:58;5.25;;;1.75;;
9370;SDS011;4725;48.384;8.984;2023-07-29T00:33:25;2.08;;;1.58;;
9370;SDS011;4725;48.384;8.984;2023-07-29T00:35:52;2.30;;;1.63;;
9370;SDS011;4725;48.384;8.984;2023-07-29T00:38:19;3.10;;;2.08;;
9370;SDS011;4725;48.384;8.984;2023-07-29T00:40:46;4.70;;;1.70;;
9370;SDS011;4725;48.384;8.984;2023-07-29T00:43:14;3.25;;;1.40;;
9370;SDS011;4725;48.384;8.984;2023-07-29T00:45:41;5.20;;;1.55;;
9370;SDS011;4725;48.384;8.984;2023-07-29T00:48:09;5.38;;;1.70;;
9370;SDS011;4725;48.384;8.984;2023-07-29T00:50:36;4.43;;;1.77;;
9370;SDS011;4725;48.384;8.984;2023-07-29T00:53:03;6.32;;;1.45;;
9370;SDS011;4725;48.384;8.984;2023-07-29T00:55:31;2.70;;;1.60;;
9370;SDS011;4725;48.384;8.984;2023-07-29T00:57:58;4.63;;;1.70;;
9370;SDS011;4725;48.384;8.984;2023-07-29T01:00:27;8.20;;;2.33;;
9370;SDS011;4725;48.384;8.984;2023-07-29T01:02:54;2.00;;;1.42;;
9370;SDS011;4725;48.384;8.984;2023-07-29T01:05:21;3.00;;;1.40;;
9370;SDS011;4725;48.384;8.984;2023-07-29T01:07:49;3.45;;;1.42;;
9370;SDS011;4725;48.384;8.984;2023-07-29T01:10:29;1.70;;;1.38;;
9370;SDS011;4725;48.384;8.984;2023-07-29T01:13:05;4.65;;;1.65;;
9370;SDS011;4725;48.384;8.984;2023-07-29T01:15:41;6.55;;;1.63;;
9370;SDS011;4725;48.384;8.984;2023-07-29T01:18:14;2.47;;;1.33;;
9370;SDS011;4725;48.384;8.984;2023-07-29T01:20:44;4.60;;;1.95;;
9370;SDS011;4725;48.384;8.984;2023-07-29T01:23:14;3.75;;;1.70;;
9370;SDS011;4725;48.384;8.984;2023-07-29T01:25:43;5.82;;;1.63;;
9370;SDS011;4725;48.384;8.984;2023-07-29T01:28:10;6.38;;;1.40;;
9370;SDS011;4725;48.384;8.984;2023-07-29T01:30:38;3.50;;;1.33;;
9370;SDS011;4725;48.384;8.984;2023-07-29T01:33:08;6.97;;;1.75;;
9370;SDS011;4725;48.384;8.984;2023-07-29T01:35:40;3.97;;;1.35;;
9370;SDS011;4725;48.384;8.984;2023-07-29T01:38:12;1.73;;;1.30;;
9370;SDS011;4725;48.384;8.984;2023-07-29T01:40:44;2.80;;;1.52;;
9370;SDS011;4725;48.384;8.984;2023-07-29T01:43:12;4.07;;;1.40;;
9370;SDS011;4725;48.384;8.984;2023-07-29T01:45:39;3.97;;;1.60;;
9370;SDS011;4725;48.384;8.984;2023-07-29T01:48:06;6.25;;;1.67;;
9370;SDS011;4725;48.384;8.984;2023-07-29T01:50:33;4.72;;;1.45;;
9370;SDS011;4725;48.384;8.984;2023-07-29T01:53:00;2.65;;;1.38;;
9370;SDS011;4725;48.384;8.984;2023-07-29T01:55:28;4.30;;;1.83;;
9370;SDS011;4725;48.384;8.984;2023-07-29T01:57:56;1.88;;;1.50;;
9370;SDS011;4725;48.384;8.984;2023-07-29T02:00:23;2.22;;;1.40;;
9370;SDS011;4725;48.384;8.984;2023-07-29T02:02:50;2.28;;;1.20;;
9370;SDS011;4725;48.384;8.984;2023-07-29T02:05:17;1.33;;;1.23;;
9370;SDS011;4725;48.384;8.984;2023-07-29T02:07:44;1.77;;;1.30;;
9370;SDS011;4725;48.384;8.984;2023-07-29T02:10:11;1.40;;;1.30;;
9370;SDS011;4725;48.384;8.984;2023-07-29T02:12:38;4.88;;;2.05;;
9370;SDS011;4725;48.384;8.984;2023-07-29T02:15:07;1.40;;;1.30;;
9370;SDS011;4725;48.384;8.984;2023-07-29T02:17:34;6.65;;;1.55;;
9370;SDS011;4725;48.384;8.984;2023-07-29T02:20:02;2.10;;;1.48;;
9370;SDS011;4725;48.384;8.984;2023-07-29T02:22:29;6.63;;;1.40;;
9370;SDS011;4725;48.384;8.984;2023-07-29T02:24:56;4.60;;;1.48;;
9370;SDS011;4725;48.384;8.984;2023-07-29T02:27:23;6.43;;;1.80;;
9370;SDS011;4725;48.384;8.984;2023-07-29T02:29:52;4.88;;;1.40;;
9370;SDS011;4725;48.384;8.984;2023-07-29T02:32:20;4.72;;;1.95;;
9370;SDS011;4725;48.384;8.984;2023-07-29T02:34:47;4.00;;;1.60;;
9370;SDS011;4725;48.384;8.984;2023-07-29T02:37:14;3.47;;;1.70;;
9370;SDS011;4725;48.384;8.984;2023-07-29T02:39:41;5.85;;;1.52;;
9370;SDS011;4725;48.384;8.984;2023-07-29T02:42:08;2.30;;;1.33;;
9370;SDS011;4725;48.384;8.984;2023-07-29T02:44:35;3.80;;;1.60;;
9370;SDS011;4725;48.384;8.984;2023-07-29T02:47:03;1.55;;;1.30;;
9370;SDS011;4725;48.384;8.984;2023-07-29T02:49:31;6.40;;;1.58;;
9370;SDS011;4725;48.384;8.984;2023-07-29T02:51:58;4.00;;;1.70;;
9370;SDS011;4725;48.384;8.984;2023-07-29T02:54:25;5.22;;;1.80;;
9370;SDS011;4725;48.384;8.984;2023-07-29T02:56:52;5.05;;;2.03;;
9370;SDS011;4725;48.384;8.984;2023-07-29T02:59:19;3.40;;;1.60;;
9370;SDS011;4725;48.384;8.984;2023-07-29T03:01:46;4.53;;;1.60;;
9370;SDS011;4725;48.384;8.984;2023-07-29T03:04:13;2.63;;;1.48;;
9370;SDS011;4725;48.384;8.984;2023-07-29T03:06:41;2.22;;;1.67;;
9370;SDS011;4725;48.384;8.984;2023-07-29T03:09:08;2.30;;;1.60;;
9370;SDS011;4725;48.384;8.984;2023-07-29T03:11:35;4.40;;;1.98;;
9370;SDS011;4725;48.384;8.984;2023-07-29T03:14:02;3.65;;;1.73;;
9370;SDS011;4725;48.384;8.984;2023-07-29T03:16:29;5.63;;;1.85;;
9370;SDS011;4725;48.384;8.984;2023-07-29T03:18:56;4.38;;;1.92;;
9370;SDS011;4725;48.384;8.984;2023-07-29T03:21:25;4.38;;;1.58;;
9370;SDS011;4725;48.384;8.984;2023-07-29T03:23:53;2.05;;;1.70;;
9370;SDS011;4725;48.384;8.984;2023-07-29T03:26:20;2.38;;;1.70;;
9370;SDS011;4725;48.384;8.984;2023-07-29T03:28:47;2.75;;;1.67;;
9370;SDS011;4725;48.384;8.984;2023-07-29T03:31:14;6.88;;;1.83;;
9370;SDS011;4725;48.384;8.984;2023-07-29T03:33:41;1.80;;;1.60;;
9370;SDS011;4725;48.384;8.984;2023-07-29T03:36:08;1.58;;;1.48;;
9370;SDS011;4725;48.384;8.984;2023-07-29T03:38:34;2.42;;;1.45;;
9370;SDS011;4725;48.384;8.984;2023-07-29T03:41:06;2.13;;;1.48;;
9370;SDS011;4725;48.384;8.984;2023-07-29T03:43:33;1.80;;;1.45;;
9370;SDS011;4725;48.384;8.984;2023-07-29T03:46:00;1.75;;;1.38;;
9370;SDS011;4725;48.384;8.984;2023-07-29T03:48:27;2.03;;;1.83;;
9370;SDS011;4725;48.384;8.984;2023-07-29T03:50:54;2.53;;;1.83;;
9370;SDS011;4725;48.384;8.984;2023-07-29T03:53:21;9.38;;;1.95;;
9370;SDS011;4725;48.384;8.984;2023-07-29T03:55:48;5.80;;;1.67;;
9370;SDS011;4725;48.384;8.984;2023-07-29T03:58:16;1.67;;;1.58;;
9370;SDS011;4725;48.384;8.984;2023-07-29T04:00:43;2.40;;;1.48;;
9370;SDS011;4725;48.384;8.984;2023-07-29T04:03:10;1.83;;;1.60;;
9370;SDS011;4725;48.384;8.984;2023-07-29T04:05:37;1.85;;;1.55;;
9370;SDS011;4725;48.384;8.984;2023-07-29T04:08:04;1.75;;;1.52;;
9370;SDS011;4725;48.384;8.984;2023-07-29T04:10:30;1.80;;;1.40;;
9370;SDS011;4725;48.384;8.984;2023-07-29T04:12:57;2.63;;;1.50;;
9370;SDS011;4725;48.384;8.984;2023-07-29T04:15:26;1.60;;;1.50;;
9370;SDS011;4725;48.384;8.984;2023-07-29T04:17:53;3.75;;;1.70;;
9370;SDS011;4725;48.384;8.984;2023-07-29T04:20:20;3.63;;;1.67;;
9370;SDS011;4725;48.384;8.984;2023-07-29T04:22:47;2.47;;;1.50;;
9370;SDS011;4725;48.384;8.984;2023-07-29T04:25:13;1.70;;;1.60;;
9370;SDS011;4725;48.384;8.984;2023-07-29T04:27:40;4.60;;;1.30;;
9370;SDS011;4725;48.384;8.984;2023-07-29T04:30:08;1.60;;;1.40;;
9370;SDS011;4725;48.384;8.984;2023-07-29T04:32:36;1.65;;;1.40;;
9370;SDS011;4725;48.384;8.984;2023-07-29T04:35:03;4.43;;;1.60;;
9370;SDS011;4725;48.384;8.984;2023-07-29T04:37:30;2.65;;;1.58;;
9370;SDS011;4725;48.384;8.984;2023-07-29T04:39:57;1.90;;;1.67;;
9370;SDS011;4725;48.384;8.984;2023-07-29T04:42:24;1.45;;;1.33;;
9370;SDS011;4725;48.384;8.984;2023-07-29T04:44:51;1.58;;;1.48;;
9370;SDS011;4725;48.384;8.984;2023-07-29T04:47:18;1.65;;;1.55;;
9370;SDS011;4725;48.384;8.984;2023-07-29T04:49:46;3.03;;;1.50;;
9370;SDS011;4725;48.384;8.984;2023-07-29T04:52:13;2.13;;;1.48;;
9370;SDS011;4725;48.384;8.984;2023-07-29T04:54:40;1.88;;;1.30;;
9370;SDS011;4725;48.384;8.984;2023-07-29T04:57:08;2.60;;;1.48;;
9370;SDS011;4725;48.384;8.984;2023-07-29T04:59:34;1.38;;;1.27;;
9370;SDS011;4725;48.384;8.984;2023-07-29T05:02:01;2.55;;;1.65;;
9370;SDS011;4725;48.384;8.984;2023-07-29T05:04:28;3.72;;;1.48;;
9370;SDS011;4725;48.384;8.984;2023-07-29T05:06:56;2.10;;;1.52;;
9370;SDS011;4725;48.384;8.984;2023-07-29T05:09:23;4.18;;;1.95;;
9370;SDS011;4725;48.384;8.984;2023-07-29T05:11:50;6.18;;;1.70;;
9370;SDS011;4725;48.384;8.984;2023-07-29T05:14:17;6.45;;;1.92;;
9370;SDS011;4725;48.384;8.984;2023-07-29T05:16:44;2.95;;;1.80;;
9370;SDS011;4725;48.384;8.984;2023-07-29T05:19:11;1.98;;;1.77;;
9370;SDS011;4725;48.384;8.984;2023-07-29T05:21:38;2.10;;;1.77;;
9370;SDS011;4725;48.384;8.984;2023-07-29T05:24:07;2.80;;;1.85;;
9370;SDS011;4725;48.384;8.984;2023-07-29T05:26:33;4.65;;;1.65;;
9370;SDS011;4725;48.384;8.984;2023-07-29T05:29:00;4.55;;;1.83;;
9370;SDS011;4725;48.384;8.984;2023-07-29T05:31:29;2.00;;;1.77;;
9370;SDS011;4725;48.384;8.984;2023-07-29T05:33:55;3.88;;;1.77;;
9370;SDS011;4725;48.384;8.984;2023-07-29T05:36:22;3.15;;;1.75;;
9370;SDS011;4725;48.384;8.984;2023-07-29T05:38:49;4.93;;;1.80;;
9370;SDS011;4725;48.384;8.984;2023-07-29T05:41:19;4.15;;;1.65;;
9370;SDS011;4725;48.384;8.984;2023-07-29T05:43:46;3.15;;;1.73;;
9370;SDS011;4725;48.384;8.984;2023-07-29T05:46:13;2.38;;;2.00;;
9370;SDS011;4725;48.384;8.984;2023-07-29T05:48:40;4.13;;;2.00;;
9370;SDS011;4725;48.384;8.984;2023-07-29T05:51:07;2.88;;;2.15;;
9370;SDS011;4725;48.384;8.984;2023-07-29T05:53:33;2.00;;;1.80;;
9370;SDS011;4725;48.384;8.984;2023-07-29T05:56:00;1.85;;;1.70;;
9370;SDS011;4725;48.384;8.984;2023-07-29T05:58:29;4.10;;;1.90;;
9370;SDS011;4725;48.384;8.984;2023-07-29T06:00:57;3.17;;;2.13;;
9370;SDS011;4725;48.384;8.984;2023-07-29T06:03:24;2.80;;;2.10;;
9370;SDS011;4725;48.384;8.984;2023-07-29T06:05:50;4.25;;;1.83;;
9370;SDS011;4725;48.384;8.984;2023-07-29T06:08:17;5.25;;;1.92;;
9370;SDS011;4725;48.384;8.984;2023-07-29T06:10:44;1.92;;;1.80;;
9370;SDS011;4725;48.384;8.984;2023-07-29T06:13:11;2.53;;;2.10;;
9370;SDS011;4725;48.384;8.984;2023-07-29T06:15:39;2.30;;;2.10;;
9370;SDS011;4725;48.384;8.984;2023-07-29T06:18:06;1.83;;;1.73;;
9370;SDS011;4725;48.384;8.984;2023-07-29T06:20:33;2.40;;;1.90;;
9370;SDS011;4725;48.384;8.984;2023-07-29T06:23:00;2.67;;;2.08;;
9370;SDS011;4725;48.384;8.984;2023-07-29T06:25:27;2.00;;;1.73;;
9370;SDS011;4725;48.384;8.984;2023-07-29T06:27:54;2.28;;;2.03;;
9370;SDS011;4725;48.384;8.984;2023-07-29T06:30:20;2.10;;;1.88;;
9370;SDS011;4725;48.384;8.984;2023-07-29T06:32:49;2.45;;;2.08;;
9370;SDS011;4725;48.384;8.984;2023-07-29T06:35:15;3.67;;;1.77;;
9370;SDS011;4725;48.384;8.984;2023-07-29T06:37:42;1.70;;;1.60;;
9370;SDS011;4725;48.384;8.984;2023-07-29T06:40:10;4.47;;;2.00;;
9370;SDS011;4725;48.384;8.984;2023-07-29T06:42:37;2.40;;;2.13;;
9370;SDS011;4725;48.384;8.984;2023-07-29T06:45:04;3.90;;;2.95;;
9370;SDS011;4725;48.384;8.984;2023-07-29T06:47:31;9.05;;;3.03;;
9370;SDS011;4725;48.384;8.984;2023-07-29T06:50:00;8.75;;;2.63;;
9370;SDS011;4725;48.384;8.984;2023-07-29T06:52:27;6.28;;;2.42;;
9370;SDS011;4725;48.384;8.984;2023-07-29T06:54:54;2.35;;;2.00;;
9370;SDS011;4725;48.384;8.984;2023-07-29T06:57:21;5.15;;;2.45;;
9370;SDS011;4725;48.384;8.984;2023-07-29T06:59:48;2.05;;;1.85;;
9370;SDS011;4725;48.384;8.984;2023-07-29T07:02:14;3.50;;;2.15;;
9370;SDS011;4725;48.384;8.984;2023-07-29T07:04:41;4.72;;;2.33;;
9370;SDS011;4725;48.384;8.984;2023-07-29T07:07:10;2.90;;;1.88;;
9370;SDS011;4725;48.384;8.984;2023-07-29T07:09:37;3.22;;;1.98;;
9370;SDS011;4725;48.384;8.984;2023-07-29T07:12:04;1.98;;;1.77;;
9370;SDS011;4725;48.384;8.984;2023-07-29T07:14:31;1.83;;;1.50;;
9370;SDS011;4725;48.384;8.984;2023-07-29T07:16:58;1.70;;;1.58;;
9370;SDS011;4725;48.384;8.984;2023-07-29T07:19:25;4.68;;;1.60;;
9370;SDS011;4725;48.384;8.984;2023-07-29T07:21:52;2.13;;;1.80;;
9370;SDS011;4725;48.384;8.984;2023-07-29T07:24:20;1.83;;;1.60;;
9370;SDS011;4725;48.384;8.984;2023-07-29T07:26:48;6.07;;;2.65;;
9370;SDS011;4725;48.384;8.984;2023-07-29T07:29:15;2.47;;;1.70;;
9370;SDS011;4725;48.384;8.984;2023-07-29T07:31:43;2.22;;;2.00;;
9370;SDS011;4725;48.384;8.984;2023-07-29T07:34:17;4.63;;;2.92;;
9370;SDS011;4725;48.384;8.984;2023-07-29T07:36:44;2.45;;;1.58;;
9370;SDS011;4725;48.384;8.984;2023-07-29T07:39:10;1.58;;;1.48;;
9370;SDS011;4725;48.384;8.984;2023-07-29T07:41:39;2.13;;;1.92;;
9370;SDS011;4725;48.384;8.984;2023-07-29T07:44:06;1.83;;;1.65;;
9370;SDS011;4725;48.384;8.984;2023-07-29T07:46:33;2.53;;;1.48;;
9370;SDS011;4725;48.384;8.984;2023-07-29T07:49:00;1.85;;;1.73;;
9370;SDS011;4725;48.384;8.984;2023-07-29T07:51:26;3.67;;;1.67;;
9370;SDS011;4725;48.384;8.984;2023-07-29T07:53:53;2.75;;;1.42;;
9370;SDS011;4725;48.384;8.984;2023-07-29T07:56:20;2.33;;;2.03;;
9370;SDS011;4725;48.384;8.984;2023-07-29T07:58:48;2.28;;;1.80;;
9370;SDS011;4725;48.384;8.984;2023-07-29T08:01:15;2.58;;;1.92;;
9370;SDS011;4725;48.384;8.984;2023-07-29T08:03:42;5.35;;;1.60;;
9370;SDS011;4725;48.384;8.984;2023-07-29T08:06:09;4.25;;;1.85;;
9370;SDS011;4725;48.384;8.984;2023-07-29T08:08:36;2.25;;;1.95;;
9370;SDS011;4725;48.384;8.984;2023-07-29T08:11:03;1.77;;;1.63;;
9370;SDS011;4725;48.384;8.984;2023-07-29T08:13:30;2.13;;;1.83;;
9370;SDS011;4725;48.384;8.984;2023-07-29T08:15:59;4.10;;;1.88;;
9370;SDS011;4725;48.384;8.984;2023-07-29T08:18:25;2.15;;;1.90;;
9370;SDS011;4725;48.384;8.984;2023-07-29T08:20:52;3.13;;;1.80;;
9370;SDS011;4725;48.384;8.984;2023-07-29T08:23:23;2.30;;;2.10;;
9370;SDS011;4725;48.384;8.984;2023-07-29T08:25:51;2.17;;;1.83;;
9370;SDS011;4725;48.384;8.984;2023-07-29T08:28:19;4.07;;;3.20;;
9370;SDS011;4725;48.384;8.984;2023-07-29T08:30:46;3.80;;;2.05;;
9370;SDS011;4725;48.384;8.984;2023-07-29T08:33:14;3.45;;;1.92;;
9370;SDS011;4725;48.384;8.984;2023-07-29T08:35:41;3.03;;;2.10;;
9370;SDS011;4725;48.384;8.984;2023-07-29T08:38:08;2.95;;;1.92;;
9370;SDS011;4725;48.384;8.984;2023-07-29T08:40:35;3.47;;;2.13;;
9370;SDS011;4725;48.384;8.984;2023-07-29T08:43:08;3.70;;;2.08;;
9370;SDS011;4725;48.384;8.984;2023-07-29T08:45:37;4.32;;;2.03;;
9370;SDS011;4725;48.384;8.984;2023-07-29T08:48:07;3.55;;;1.92;;
9370;SDS011;4725;48.384;8.984;2023-07-29T08:50:37;4.63;;;1.83;;
9370;SDS011;4725;48.384;8.984;2023-07-29T08:53:05;4.63;;;2.08;;
9370;SDS011;4725;48.384;8.984;2023-07-29T08:55:33;2.03;;;1.80;;
9370;SDS011;4725;48.384;8.984;2023-07-29T08:58:00;2.33;;;1.75;;
9370;SDS011;4725;48.384;8.984;2023-07-29T09:00:28;2.22;;;1.80;;
9370;SDS011;4725;48.384;8.984;2023-07-29T09:02:55;2.90;;;1.67;;
9370;SDS011;4725;48.384;8.984;2023-07-29T09:05:27;2.97;;;2.00;;
9370;SDS011;4725;48.384;8.984;2023-07-29T09:07:55;4.03;;;1.70;;
9370;SDS011;4725;48.384;8.984;2023-07-29T09:10:22;1.55;;;1.45;;
9370;SDS011;4725;48.384;8.984;2023-07-29T09:12:52;4.05;;;1.50;;
9370;SDS011;4725;48.384;8.984;2023-07-29T09:15:26;1.90;;;1.73;;
9370;SDS011;4725;48.384;8.984;2023-07-29T09:17:55;1.75;;;1.55;;
9370;SDS011;4725;48.384;8.984;2023-07-29T09:20:25;2.17;;;1.63;;
9370;SDS011;4725;48.384;8.984;2023-07-29T09:22:53;1.98;;;1.88;;
9370;SDS011;4725;48.384;8.984;2023-07-29T09:25:25;2.25;;;1.77;;
9370;SDS011;4725;48.384;8.984;2023-07-29T09:27:55;1.67;;;1.58;;
9370;SDS011;4725;48.384;8.984;2023-07-29T09:30:25;2.35;;;1.83;;
9370;SDS011;4725;48.384;8.984;2023-07-29T09:32:54;2.15;;;1.90;;
9370;SDS011;4725;48.384;8.984;2023-07-29T09:35:22;1.90;;;1.75;;
9370;SDS011;4725;48.384;8.984;2023-07-29T09:37:50;2.17;;;1.83;;
9370;SDS011;4725;48.384;8.984;2023-07-29T09:40:18;2.47;;;1.77;;
9370;SDS011;4725;48.384;8.984;2023-07-29T09:42:49;2.53;;;2.00;;
9370;SDS011;4725;48.384;8.984;2023-07-29T09:45:19;2.20;;;2.00;;
9370;SDS011;4725;48.384;8.984;2023-07-29T09:47:47;2.53;;;1.75;;
9370;SDS011;4725;48.384;8.984;2023-07-29T09:50:15;1.80;;;1.70;;
9370;SDS011;4725;48.384;8.984;2023-07-29T09:52:42;1.67;;;1.48;;
9370;SDS011;4725;48.384;8.984;2023-07-29T09:55:10;1.80;;;1.70;;
9370;SDS011;4725;48.384;8.984;2023-07-29T09:57:40;2.13;;;1.92;;
9370;SDS011;4725;48.384;8.984;2023-07-29T10:00:10;2.60;;;2.13;;
9370;SDS011;4725;48.384;8.984;2023-07-29T10:02:38;2.10;;;2.00;;
9370;SDS011;4725;48.384;8.984;2023-07-29T10:05:06;2.00;;;1.80;;
9370;SDS011;4725;48.384;8.984;2023-07-29T10:07:34;4.22;;;2.25;;
9370;SDS011;4725;48.384;8.984;2023-07-29T10:10:03;4.68;;;2.33;;
9370;SDS011;4725;48.384;8.984;2023-07-29T10:12:31;3.70;;;1.95;;
9370;SDS011;4725;48.384;8.984;2023-07-29T10:15:02;3.05;;;2.28;;
9370;SDS011;4725;48.384;8.984;2023-07-29T10:17:29;2.25;;;2.05;;
9370;SDS011;4725;48.384;8.984;2023-07-29T10:19:57;2.95;;;2.42;;
9370;SDS011;4725;48.384;8.984;2023-07-29T10:22:25;3.20;;;2.30;;
9370;SDS011;4725;48.384;8.984;2023-07-29T10:24:56;2.25;;;2.00;;
9370;SDS011;4725;48.384;8.984;2023-07-29T10:27:31;3.35;;;2.33;;
9370;SDS011;4725;48.384;8.984;2023-07-29T10:30:08;4.18;;;2.20;;
9370;SDS011;4725;48.384;8.984;2023-07-29T10:32:36;3.00;;;2.10;;
9370;SDS011;4725;48.384;8.984;2023-07-29T10:35:05;2.28;;;2.00;;
9370;SDS011;4725;48.384;8.984;2023-07-29T10:37:33;4.45;;;2.00;;
9370;SDS011;4725;48.384;8.984;2023-07-29T10:40:00;2.42;;;2.20;;
9370;SDS011;4725;48.384;8.984;2023-07-29T10:42:31;3.40;;;2.00;;
9370;SDS011;4725;48.384;8.984;2023-07-29T10:44:58;2.03;;;1.92;;
9370;SDS011;4725;48.384;8.984;2023-07-29T10:47:27;2.17;;;2.05;;
9370;SDS011;4725;48.384;8.984;2023-07-29T10:49:55;7.20;;;2.38;;
9370;SDS011;4725;48.384;8.984;2023-07-29T10:52:29;3.63;;;1.92;;
9370;SDS011;4725;48.384;8.984;2023-07-29T10:54:57;2.17;;;2.00;;
9370;SDS011;4725;48.384;8.984;2023-07-29T10:57:32;3.15;;;2.45;;
9370;SDS011;4725;48.384;8.984;2023-07-29T11:00:00;2.17;;;1.98;;
9370;SDS011;4725;48.384;8.984;2023-07-29T11:02:30;5.57;;;2.35;;
9370;SDS011;4725;48.384;8.984;2023-07-29T11:04:59;1.88;;;1.73;;
9370;SDS011;4725;48.384;8.984;2023-07-29T11:07:30;3.55;;;2.10;;
9370;SDS011;4725;48.384;8.984;2023-07-29T11:09:58;2.03;;;1.88;;
9370;SDS011;4725;48.384;8.984;2023-07-29T11:12:39;2.13;;;1.95;;
9370;SDS011;4725;48.384;8.984;2023-07-29T11:15:13;4.57;;;2.13;;
9370;SDS011;4725;48.384;8.984;2023-07-29T11:17:43;4.50;;;2.22;;
9370;SDS011;4725;48.384;8.984;2023-07-29T11:20:11;2.97;;;2.20;;
9370;SDS011;4725;48.384;8.984;2023-07-29T11:22:39;4.13;;;2.20;;
9370;SDS011;4725;48.384;8.984;2023-07-29T11:25:07;4.32;;;2.65;;
9370;SDS011;4725;48.384;8.984;2023-07-29T11:27:35;5.63;;;3.55;;
9370;SDS011;4725;48.384;8.984;2023-07-29T11:30:03;4.28;;;1.75;;
9370;SDS011;4725;48.384;8.984;2023-07-29T11:32:31;2.15;;;1.60;;
9370;SDS011;4725;48.384;8.984;2023-07-29T11:35:12;1.67;;;1.50;;
9370;SDS011;4725;48.384;8.984;2023-07-29T11:37:42;2.13;;;1.70;;
9370;SDS011;4725;48.384;8.984;2023-07-29T11:40:22;2.58;;;1.70;;
9370;SDS011;4725;48.384;8.984;2023-07-29T11:42:50;2.50;;;1.88;;
9370;SDS011;4725;48.384;8.984;2023-07-29T11:45:22;0.50;;;0.50;;
9370;SDS011;4725;48.384;8.984;2023-07-29T11:47:50;0.40;;;0.40;;
9370;SDS011;4725;48.384;8.984;2023-07-29T11:50:20;1.27;;;0.80;;
9370;SDS011;4725;48.384;8.984;2023-07-29T11:52:50;0.45;;;0.45;;
9370;SDS011;4725;48.384;8.984;2023-07-29T11:55:17;0.40;;;0.40;;
9370;SDS011;4725;48.384;8.984;2023-07-29T11:57:44;0.45;;;0.45;;
9370;SDS011;4725;48.384;8.984;2023-07-29T12:00:19;0.45;;;0.45;;
9370;SDS011;4725;48.384;8.984;2023-07-29T12:02:47;0.75;;;0.75;;
9370;SDS011;4725;48.384;8.984;2023-07-29T12:05:17;0.75;;;0.75;;
9370;SDS011;4725;48.384;8.984;2023-07-29T12:07:49;0.40;;;0.40;;
9370;SDS011;4725;48.384;8.984;2023-07-29T12:10:18;0.50;;;0.50;;
9370;SDS011;4725;48.384;8.984;2023-07-29T12:12:48;0.40;;;0.40;;
9370;SDS011;4725;48.384;8.984;2023-07-29T12:15:25;0.50;;;0.50;;
9370;SDS011;4725;48.384;8.984;2023-07-29T12:17:56;0.60;;;0.60;;
9370;SDS011;4725;48.384;8.984;2023-07-29T12:20:24;0.50;;;0.50;;
9370;SDS011;4725;48.384;8.984;2023-07-29T12:22:57;0.60;;;0.60;;
9370;SDS011;4725;48.384;8.984;2023-07-29T12:25:26;0.50;;;0.50;;
9370;SDS011;4725;48.384;8.984;2023-07-29T12:27:55;0.50;;;0.50;;
9370;SDS011;4725;48.384;8.984;2023-07-29T12:30:26;0.50;;;0.50;;
9370;SDS011;4725;48.384;8.984;2023-07-29T12:32:53;0.50;;;0.50;;
9370;SDS011;4725;48.384;8.984;2023-07-29T12:35:24;1.08;;;1.08;;
9370;SDS011;4725;48.384;8.984;2023-07-29T12:38:05;0.50;;;0.50;;
9370;SDS011;4725;48.384;8.984;2023-07-29T12:40:37;0.40;;;0.40;;
9370;SDS011;4725;48.384;8.984;2023-07-29T12:43:07;0.40;;;0.40;;
9370;SDS011;4725;48.384;8.984;2023-07-29T12:45:54;0.50;;;0.50;;
9370;SDS011;4725;48.384;8.984;2023-07-29T12:48:31;0.40;;;0.40;;
9370;SDS011;4725;48.384;8.984;2023-07-29T12:51:02;0.45;;;0.45;;
9370;SDS011;4725;48.384;8.984;2023-07-29T12:53:33;0.50;;;0.50;;
9370;SDS011;4725;48.384;8.984;2023-07-29T12:56:02;0.40;;;0.40;;
9370;SDS011;4725;48.384;8.984;2023-07-29T12:58:29;0.50;;;0.50;;
9370;SDS011;4725;48.384;8.984;2023-07-29T13:00:57;0.60;;;0.60;;
9370;SDS011;4725;48.384;8.984;2023-07-29T13:03:24;0.50;;;0.50;;
9370;SDS011;4725;48.384;8.984;2023-07-29T13:06:00;0.60;;;0.60;;
9370;SDS011;4725;48.384;8.984;2023-07-29T13:08:29;0.60;;;0.60;;
9370;SDS011;4725;48.384;8.984;2023-07-29T13:11:02;0.52;;;0.52;;
9370;SDS011;4725;48.384;8.984;2023-07-29T13:13:31;0.50;;;0.50;;
9370;SDS011;4725;48.384;8.984;2023-07-29T13:16:03;0.50;;;0.50;;
9370;SDS011;4725;48.384;8.984;2023-07-29T13:18:37;0.50;;;0.50;;
9370;SDS011;4725;48.384;8.984;2023-07-29T13:21:04;0.50;;;0.50;;
9370;SDS011;4725;48.384;8.984;2023-07-29T13:23:36;1.17;;;1.08;;
9370;SDS011;4725;48.384;8.984;2023-07-29T13:26:06;0.60;;;0.60;;
9370;SDS011;4725;48.384;8.984;2023-07-29T13:28:34;1.88;;;1.63;;
9370;SDS011;4725;48.384;8.984;2023-07-29T13:31:01;1.98;;;1.73;;
9370;SDS011;4725;48.384;8.984;2023-07-29T13:33:31;4.95;;;2.13;;
9370;SDS011;4725;48.384;8.984;2023-07-29T13:35:59;2.42;;;2.15;;
9370;SDS011;4725;48.384;8.984;2023-07-29T13:38:27;2.65;;;2.45;;
9370;SDS011;4725;48.384;8.984;2023-07-29T13:41:08;2.30;;;1.90;;
9370;SDS011;4725;48.384;8.984;2023-07-29T13:43:38;2.05;;;1.95;;
9370;SDS011;4725;48.384;8.984;2023-07-29T13:46:08;2.38;;;2.17;;
9370;SDS011;4725;48.384;8.984;2023-07-29T13:48:37;2.50;;;2.30;;
9370;SDS011;4725;48.384;8.984;2023-07-29T13:51:10;3.58;;;2.15;;
9370;SDS011;4725;48.384;8.984;2023-07-29T13:53:41;3.80;;;1.92;;
9370;SDS011;4725;48.384;8.984;2023-07-29T13:56:16;3.05;;;2.15;;
9370;SDS011;4725;48.384;8.984;2023-07-29T13:58:43;2.33;;;2.13;;
9370;SDS011;4725;48.384;8.984;2023-07-29T14:01:15;2.72;;;2.50;;
9370;SDS011;4725;48.384;8.984;2023-07-29T14:03:42;2.50;;;2.30;;
9370;SDS011;4725;48.384;8.984;2023-07-29T14:06:09;2.05;;;1.85;;
9370;SDS011;4725;48.384;8.984;2023-07-29T14:08:36;3.72;;;2.25;;
9370;SDS011;4725;48.384;8.984;2023-07-29T14:11:10;2.65;;;2.30;;
9370;SDS011;4725;48.384;8.984;2023-07-29T14:13:43;2.15;;;1.95;;
9370;SDS011;4725;48.384;8.984;2023-07-29T14:16:12;2.05;;;1.85;;
9370;SDS011;4725;48.384;8.984;2023-07-29T14:18:41;2.38;;;1.75;;
9370;SDS011;4725;48.384;8.984;2023-07-29T14:21:14;1.98;;;1.80;;
9370;SDS011;4725;48.384;8.984;2023-07-29T14:23:44;2.20;;;1.85;;
9370;SDS011;4725;48.384;8.984;2023-07-29T14:26:11;2.00;;;1.90;;
9370;SDS011;4725;48.384;8.984;2023-07-29T14:28:40;2.42;;;2.22;;
9370;SDS011;4725;48.384;8.984;2023-07-29T14:31:09;4.22;;;2.22;;
9370;SDS011;4725;48.384;8.984;2023-07-29T14:33:42;2.72;;;2.47;;
9370;SDS011;4725;48.384;8.984;2023-07-29T14:36:14;2.45;;;1.80;;
9370;SDS011;4725;48.384;8.984;2023-07-29T14:38:44;1.98;;;1.88;;
9370;SDS011;4725;48.384;8.984;2023-07-29T14:41:13;2.40;;;2.20;;
9370;SDS011;4725;48.384;8.984;2023-07-29T14:43:47;2.35;;;2.15;;
9370;SDS011;4725;48.384;8.984;2023-07-29T14:46:19;2.53;;;2.33;;
9370;SDS011;4725;48.384;8.984;2023-07-29T14:48:50;3.10;;;2.15;;
9370;SDS011;4725;48.384;8.984;2023-07-29T14:51:19;2.72;;;2.17;;
9370;SDS011;4725;48.384;8.984;2023-07-29T14:53:49;2.58;;;2.38;;
9370;SDS011;4725;48.384;8.984;2023-07-29T14:56:24;2.20;;;2.00;;
9370;SDS011;4725;48.384;8.984;2023-07-29T14:58:57;3.58;;;2.30;;
9370;SDS011;4725;48.384;8.984;2023-07-29T15:01:29;2.70;;;2.50;;
9370;SDS011;4725;48.384;8.984;2023-07-29T15:03:58;3.83;;;2.47;;
9370;SDS011;4725;48.384;8.984;2023-07-29T15:06:38;4.70;;;2.42;;
9370;SDS011;4725;48.384;8.984;2023-07-29T15:09:24;4.90;;;2.35;;
9370;SDS011;4725;48.384;8.984;2023-07-29T15:11:54;3.15;;;2.08;;
9370;SDS011;4725;48.384;8.984;2023-07-29T15:14:24;2.53;;;2.30;;
9370;SDS011;4725;48.384;8.984;2023-07-29T15:17:11;3.38;;;2.53;;
9370;SDS011;4725;48.384;8.984;2023-07-29T15:19:43;5.93;;;2.58;;
9370;SDS011;4725;48.384;8.984;2023-07-29T15:22:14;3.80;;;2.65;;
9370;SDS011;4725;48.384;8.984;2023-07-29T15:24:45;3.58;;;2.67;;